Flight Track Log - Related Links

Times and Time Zones

All times are in EDT time to prevent confusion due to time zone crossing. See the AAL2274 flight status page for this flight to view local times or setup timezone preferences in your user account.

Time Position Orientation Groundspeed Altitude Reporting Facility
EDT Latitude Longitude Course Direction KTS MPH feet Rate Location/Type
Sat 06:55:15 PM 32.8687 -97.0260 336° Northwest  Level FlightAware Approximate
Sat 06:55:46 PM 32.8794 -97.0317 172° South 140 161 1,900  Level FAA TRACON SMA TRACON (SMA)
Sat 06:56:25 PM 32.8450 -97.0258 156° South 191 220 3,500 2,810 Climbing FAA TRACON SMA TRACON (SMA)
Sat 06:57:05 PM 32.8117 -97.0081 155° Southeast 191 220 5,600 2,850 Climbing FAA TRACON SMA TRACON (SMA)
Sat 06:57:45 PM 32.7808 -96.9911 106° East 201 231 7,300 2,370 Climbing FAA TRACON SMA TRACON (SMA)
Sat 06:58:26 PM 32.7689 -96.9419 92° East 241 277 8,800 1,950 Climbing FAA TRACON SMA TRACON (SMA)
Sat 06:59:05 PM 32.7669 -96.8800 73° East 283 326 9,900 2,000 Climbing FAA TRACON SMA TRACON (SMA)
Sat 06:59:44 PM 32.7822 -96.8208 16° North 327 376 11,400 2,475 Climbing FAA TRACON SMA TRACON (SMA)
Sat 07:00:25 PM 32.8436 -96.7994 351° North 348 400 13,200 2,444 Climbing FAA TRACON SMA TRACON (SMA)
Sat 07:01:05 PM 32.9133 -96.8133 347° North 367 422 14,700 2,203 Climbing FAA TRACON SMA TRACON (SMA)
Sat 07:01:44 PM 32.9808 -96.8317 346° North 404 465 16,100 2,278 Climbing FAA TRACON SMA TRACON (SMA)
Sat 07:02:24 PM 33.0564 -96.8533 346° North 406 467 17,700 2,550 Climbing FAA TRACON SMA TRACON (SMA)
Sat 07:03:04 PM 33.1353 -96.8764 347° North 421 484 19,500 2,268 Climbing FAA TRACON SMA TRACON (SMA)
Sat 07:03:46 PM 33.2167 -96.8989 347° North 435 501 20,800 1,829 Climbing FAA TRACON SMA TRACON (SMA)
Sat 07:04:26 PM 33.2919 -96.9189 347° North 449 517 22,000 2,051 Climbing FAA TRACON SMA TRACON (SMA)
Sat 07:05:05 PM 33.3783 -96.9431 354° North 460 529 23,500 2,231 Climbing FAA TRACON SMA TRACON (SMA)
Sat 07:05:44 PM 33.4675 -96.9542 18° North 471 542 24,900 2,325 Climbing FAA TRACON SMA TRACON (SMA)
Sat 07:06:25 PM 33.5467 -96.9233 20° North 486 559 26,600 2,222 Climbing FAA TRACON SMA TRACON (SMA)
Sat 07:07:05 PM 33.6339 -96.8850 19° North 482 555 27,900 1,950 Climbing FAA TRACON SMA TRACON (SMA)
Sat 07:07:45 PM 33.7219 -96.8494 18° North 482 555 29,200 1,823 Climbing FAA TRACON SMA TRACON (SMA)
Sat 07:08:24 PM 33.8008 -96.8181 21° North 483 556 30,300 1,440 Climbing FAA TRACON SMA TRACON (SMA)
Sat 07:09:00 PM 33.8756 -96.7831 19° North 476 548 31,000 438 Climbing Fort Worth Center
Sat 07:10:00 PM 34.0003 -96.7319 20° North 481 554 31,000  Level Fort Worth Center
Sat 07:11:00 PM 34.1067 -96.6861 19° North 474 545 31,000  Level Fort Worth Center
Sat 07:12:00 PM 34.2336 -96.6322 18° North 466 536 31,000 -400 Level Fort Worth Center
Sat 07:13:00 PM 34.3606 -96.5808 19° North 466 536 30,200 -900 Descending Fort Worth Center
Sat 07:14:00 PM 34.4853 -96.5292 20° North 466 536 29,200 -1,000 Descending Fort Worth Center
Sat 07:15:00 PM 34.6142 -96.4725 19° North 471 542 28,200 -1,450 Descending Fort Worth Center
Sat 07:16:00 PM 34.7536 -96.4153 20° North 476 548 26,300 -1,900 Descending Fort Worth Center
Sat 07:17:00 PM 34.8825 -96.3581 20° North 481 554 24,400 -1,150 Descending Fort Worth Center
Sat 07:18:00 PM 35.0114 -96.3008 19° North 486 559 24,000 -1,000 Descending Fort Worth Center
Sat 07:19:00 PM 35.1361 -96.2483 18° North 481 554 22,400 -1,900 Descending Fort Worth Center
Sat 07:20:00 PM 35.2606 -96.1983 15° North 475 547 20,200 -2,099 Descending Fort Worth Center
Sat 07:22:23 PM 35.5492 -96.1017 North 428 493 15,300 -2,029 Descending Kansas City Center
Sat 07:23:30 PM 35.6725 -96.0836 North 420 483 13,100 -1,875 Descending Kansas City Center
Sat 07:24:31 PM 35.7792 -96.0628 North 388 447 11,300 -1,357 Descending Kansas City Center
Sat 07:25:25 PM 35.8669 -96.0517 North 338 389 10,500 -1,156 Descending Kansas City Center
Sat 07:26:20 PM 35.9508 -96.0378 North 321 369 9,200 -1,500 Descending Kansas City Center
Sat 07:27:21 PM 36.0342 -96.0317 North 303 349 7,600 -1,537 Descending Kansas City Center
Sat 07:28:21 PM 36.1158 -96.0206 North 297 342 6,100 -1,736 Descending Kansas City Center
Sat 07:29:22 PM 36.1972 -96.0194 11° North 283 326 4,100 -1,426 Descending Kansas City Center
Sat 07:30:23 PM 36.2661 -96.0028 11° North 248 285 3,200 -885 Descending Kansas City Center

Login

Don't have an account? Register now (free) for customized features, flight alerts, and more!